Zamokta, Russia
Current Conditions -  °F | °C
As of 4:30 PM on Friday 31 Oct 2014 (Local Time) from UIUU Reporting Station
Broken Clouds Broken Clouds  
Wind Chill: 34°   Ceiling: 10000
Heat Index: 34°   Visibility: 6mi
Dew Point: 18°   Wind: 2mph
Humidity: 52%   Direction: 180°S
Pressure: 30.06"   Gusts: NA
Location:  52.77°N, 109.97°E
Report Text: UIUU 310830Z 18001MPS 9999 BKN100 01/M08 Q1018 NOSIG RMKQFE719/0959 26CLRD60
Loading
Personal Weather Stations






























Interactive Weather Map
Tropical Storm Tracking
New forecast layout! Learn more

10-Day Weather Forecast

Advertisements
Track Severe Weather on mobile